Station History

Weather Underground - logo

Station Historical Data
Daily Summary for September 21, 2017 Units:  English    Metric   Both
« Previous Day
Next Day »
Daily Weekly Monthly Yearly Custom
  High: Low: Average:
Temperature: TemperatureF °F 55.6 °F 63.3 °F
Dew Point: DewpointF °F 44.2 °F 51.7 °F
Humidity: Humidity % 37 % 68 %
Wind Speed: WindSpeedMPH mph 0.0 mph 1.8 mph
Wind Gust: WindSpeedGustMPH mph - -
Wind:- - WNW
Pressure: PressureIn in 29.76 in -
Precipitation: 0.14 in    
Historical Graphs
 
 
Tabular Data for September 21, 2017
Time Temperature Dew Point Pressure Wind Wind Speed Wind Gust Humidity Rainfall Rate (Hourly)
TemperatureF °F DewpointF °F PressureIn in Calm     Humidity % HourlyPrecipIn in
00:09 65.7 °F 57.6 °F 29.77 in Calm     75 % 0.00 in
00:14 65.6 °F 57.5 °F 29.77 in Calm   0.1 mph 75 % 0.00 in
00:19 65.5 °F 57.7 °F 29.77 in NW 1.0 mph   76 % 0.00 in
00:24 65.6 °F 57.8 °F 29.77 in NNW 1.2 mph 1.2 mph 76 % 0.00 in
00:29 65.6 °F 57.8 °F 29.77 in NNW 1.2 mph 1.2 mph 76 % 0.00 in
00:34 65.6 °F 57.8 °F 29.77 in Calm     76 % 0.00 in
00:39 65.5 °F 57.7 °F 29.76 in NW 1.2 mph 1.2 mph 76 % 0.00 in
00:44 65.4 °F 57.6 °F 29.76 in Calm     76 % 0.00 in
00:49 65.2 °F 57.8 °F 29.76 in Calm     77 % 0.00 in
00:54 65.0 °F 57.6 °F 29.77 in Calm     77 % 0.00 in
00:59 64.7 °F 57.7 °F 29.77 in Calm     78 % 0.00 in
01:04 64.3 °F 57.6 °F 29.77 in Calm     79 % 0.00 in
01:09 64.1 °F 57.5 °F 29.76 in NW 1.2 mph   79 % 0.00 in
01:14 63.9 °F 57.3 °F 29.77 in Calm     79 % 0.00 in
01:19 63.7 °F 57.1 °F 29.77 in NW 1.2 mph 1.2 mph 79 % 0.00 in
01:24 63.7 °F 57.1 °F 29.77 in Calm     79 % 0.00 in
01:30 63.7 °F 56.7 °F 29.77 in NW 1.2 mph 1.2 mph 78 % 0.00 in
01:35 63.8 °F 56.4 °F 29.77 in NNW 2.0 mph 2.0 mph 77 % 0.00 in
01:40 64.1 °F 56.4 °F 29.77 in NW 1.2 mph 1.2 mph 76 % 0.00 in
01:45 64.3 °F 56.6 °F 29.77 in NW 1.0 mph 1.0 mph 76 % 0.00 in
01:49 64.6 °F 56.5 °F 29.77 in NNW 1.2 mph   75 % 0.00 in
01:54 64.7 °F 56.6 °F 29.77 in Calm   0.2 mph 75 % 0.00 in
01:59 64.7 °F 56.6 °F 29.76 in NW 2.3 mph   75 % 0.00 in
02:05 64.8 °F 56.3 °F 29.76 in Calm     74 % 0.00 in
02:10 64.7 °F 56.6 °F 29.76 in NW 2.3 mph 2.3 mph 75 % 0.00 in
02:15 64.5 °F 56.0 °F 29.76 in NW 2.3 mph 2.3 mph 74 % 0.00 in
02:20 64.3 °F 55.8 °F 29.76 in WNW 2.3 mph 2.3 mph 74 % 0.00 in
02:25 64.2 °F 55.7 °F 29.76 in NNW 2.3 mph 2.3 mph 74 % 0.00 in
02:35 64.2 °F 55.4 °F 29.76 in NNW 1.2 mph 1.2 mph 73 % 0.00 in
02:40 64.1 °F 54.9 °F 29.76 in NW 4.6 mph 4.6 mph 72 % 0.00 in
02:45 64.2 °F 54.6 °F 29.76 in WNW 3.5 mph 3.5 mph 71 % 0.00 in
02:50 64.4 °F 54.4 °F 29.76 in NNW 4.6 mph 4.6 mph 70 % 0.00 in
02:55 64.5 °F 54.1 °F 29.76 in NW 4.6 mph 4.6 mph 69 % 0.00 in
03:00 64.5 °F 53.7 °F 29.76 in NW 4.6 mph 4.6 mph 68 % 0.00 in
03:05 64.5 °F 53.7 °F 29.76 in WNW 5.0 mph 5.0 mph 68 % 0.00 in
03:10 64.5 °F 53.3 °F 29.76 in NW 5.8 mph 5.8 mph 67 % 0.00 in
03:15 64.5 °F 53.3 °F 29.76 in NW 5.8 mph 5.8 mph 67 % 0.00 in
03:20 64.4 °F 53.6 °F 29.76 in NW 5.0 mph 5.0 mph 68 % 0.00 in
03:25 64.4 °F 53.6 °F 29.77 in NW 3.5 mph 3.5 mph 68 % 0.00 in
03:30 64.2 °F 53.4 °F 29.77 in WNW 9.0 mph 9.0 mph 68 % 0.00 in
03:32 64.1 °F 53.3 °F 29.77 in NW 7.0 mph 7.0 mph 68 % 0.00 in
03:37 63.8 °F 53.0 °F 29.77 in NW 9.2 mph 9.2 mph 68 % 0.00 in
03:42 63.6 °F 53.2 °F 29.77 in NW 6.9 mph 6.9 mph 69 % 0.00 in
03:47 63.4 °F 53.0 °F 29.77 in WNW 8.1 mph 8.1 mph 69 % 0.00 in
03:52 63.1 °F 52.8 °F 29.77 in WNW 6.9 mph 6.9 mph 69 % 0.00 in
03:57 62.9 °F 52.6 °F 29.77 in NNW 8.1 mph 8.1 mph 69 % 0.00 in
04:02 62.7 °F 52.4 °F 29.77 in NW 5.8 mph 5.8 mph 69 % 0.00 in
04:07 62.5 °F 52.2 °F 29.77 in NW 5.8 mph 5.8 mph 69 % 0.00 in
04:12 62.4 °F 52.5 °F 29.77 in NW 4.0 mph 4.0 mph 70 % 0.00 in
04:17 62.2 °F 52.3 °F 29.77 in NNW 5.8 mph 5.8 mph 70 % 0.00 in
04:22 62.2 °F 52.7 °F 29.77 in WNW 3.5 mph 3.5 mph 71 % 0.00 in
04:27 62.2 °F 53.1 °F 29.78 in NW 5.8 mph 5.8 mph 72 % 0.00 in
04:32 62.2 °F 53.1 °F 29.78 in NNW 3.5 mph 3.5 mph 72 % 0.00 in
04:38 62.1 °F 53.0 °F 29.78 in NW 6.9 mph 6.9 mph 72 % 0.00 in
04:42 62.0 °F 52.9 °F 29.78 in NW 8.1 mph 8.1 mph 72 % 0.00 in
04:48 61.8 °F 52.7 °F 29.78 in NW 6.9 mph 6.9 mph 72 % 0.00 in
04:53 61.7 °F 53.0 °F 29.78 in NNW 3.5 mph 3.5 mph 73 % 0.00 in
04:58 61.6 °F 52.9 °F 29.79 in NNW 5.8 mph 5.8 mph 73 % 0.00 in
05:03 61.6 °F 52.5 °F 29.79 in NNW 5.8 mph 5.8 mph 72 % 0.00 in
05:08 61.5 °F 52.4 °F 29.79 in WNW 8.1 mph 8.1 mph 72 % 0.00 in
05:13 61.4 °F 52.7 °F 29.79 in NW 6.9 mph 6.9 mph 73 % 0.00 in
05:18 61.3 °F 52.6 °F 29.80 in NNE 4.6 mph 4.6 mph 73 % 0.00 in
05:23 61.1 °F 52.4 °F 29.80 in WNW 5.8 mph 5.8 mph 73 % 0.00 in
05:28 60.8 °F 52.8 °F 29.80 in NW 4.6 mph 4.6 mph 75 % 0.00 in
05:33 60.4 °F 53.2 °F 29.80 in NW 6.9 mph 6.9 mph 77 % 0.00 in
05:38 59.9 °F 54.1 °F 29.80 in NNW 6.9 mph 6.9 mph 81 % 0.00 in
05:43 59.1 °F 53.9 °F 29.81 in NW 6.9 mph 6.9 mph 83 % 0.00 in
05:48 58.7 °F 53.9 °F 29.81 in NW 5.8 mph 5.8 mph 84 % 0.00 in
05:53 58.4 °F 54.2 °F 29.81 in NW 3.5 mph 3.5 mph 86 % 0.00 in
05:58 58.1 °F 54.2 °F 29.82 in NW 2.3 mph 2.3 mph 87 % 0.00 in
06:03 57.8 °F 54.3 °F 29.82 in WNW 4.6 mph 4.6 mph 88 % 0.01 in
06:08 57.6 °F 54.1 °F 29.82 in NW 6.0 mph 6.0 mph 88 % 0.01 in
06:13 57.6 °F 54.4 °F 29.81 in NNW 4.0 mph 4.0 mph 89 % 0.01 in
06:18 57.4 °F 54.2 °F 29.82 in NW 3.5 mph 3.5 mph 89 % 0.02 in
06:23 57.4 °F 54.5 °F 29.82 in NW 1.2 mph 1.2 mph 90 % 0.03 in
06:28 57.3 °F 54.7 °F 29.82 in NW 3.5 mph 3.5 mph 91 % 0.05 in
06:33 57.1 °F 54.5 °F 29.82 in NW 2.3 mph 2.3 mph 91 % 0.07 in
06:38 56.9 °F 54.3 °F 29.82 in NW 1.2 mph 1.2 mph 91 % 0.08 in
06:43 56.8 °F 54.2 °F 29.82 in NW 1.2 mph 1.2 mph 91 % 0.08 in
06:48 56.6 °F 54.0 °F 29.82 in Calm     91 % 0.09 in
06:53 56.6 °F 54.0 °F 29.83 in NW 2.3 mph 2.3 mph 91 % 0.10 in
07:03 56.2 °F 53.6 °F 29.83 in NW 3.5 mph 3.5 mph 91 % 0.10 in
07:08 56.1 °F 53.8 °F 29.83 in Calm     92 % 0.11 in
07:13 56.1 °F 53.8 °F 29.83 in Calm     92 % 0.11 in
07:18 56.1 °F 53.8 °F 29.83 in Calm     92 % 0.10 in
07:21 56.0 °F 53.7 °F 29.83 in Calm     92 % 0.11 in
07:26 55.9 °F 53.3 °F 29.83 in Calm     91 % 0.10 in
07:31 55.9 °F 53.3 °F 29.83 in Calm     91 % 0.07 in
07:36 55.9 °F 53.6 °F 29.83 in Calm     92 % 0.06 in
07:41 56.2 °F 53.9 °F 29.83 in Calm     92 % 0.05 in
07:46 56.2 °F 53.9 °F 29.83 in Calm     92 % 0.04 in
07:51 56.3 °F 54.3 °F 29.84 in Calm     93 % 0.04 in
07:56 56.4 °F 54.4 °F 29.84 in Calm   0.1 mph 93 % 0.03 in
08:01 56.5 °F 54.5 °F 29.84 in WNW 1.2 mph   93 % 0.03 in
08:06 56.6 °F 54.6 °F 29.84 in Calm     93 % 0.02 in
08:11 56.6 °F 54.6 °F 29.84 in Calm     93 % 0.02 in
08:16 56.7 °F 54.7 °F 29.84 in Calm     93 % 0.02 in
08:21 56.8 °F 54.8 °F 29.84 in Calm     93 % 0.01 in
08:26 56.9 °F 54.9 °F 29.84 in Calm     93 % 0.01 in
08:31 57.1 °F 55.1 °F 29.85 in Calm     93 % 0.01 in
08:36 57.1 °F 54.8 °F 29.85 in WNW 1.2 mph   92 % 0.01 in
08:41 57.1 °F 54.8 °F 29.85 in Calm     92 % 0.01 in
08:46 57.4 °F 55.1 °F 29.85 in Calm     92 % 0.01 in
08:51 57.6 °F 55.3 °F 29.85 in Calm     92 % 0.01 in
08:56 57.9 °F 55.6 °F 29.86 in Calm     92 % 0.01 in
09:01 58.3 °F 56.0 °F 29.86 in Calm     92 % 0.01 in
09:06 58.7 °F 56.1 °F 29.86 in WNW 1.2 mph   91 % 0.00 in
09:11 59.2 °F 56.6 °F 29.86 in Calm     91 % 0.00 in
09:16 59.2 °F 56.0 °F 29.86 in WNW 1.2 mph   89 % 0.00 in
09:21 59.3 °F 55.7 °F 29.86 in Calm     88 % 0.00 in
09:26 59.4 °F 55.8 °F 29.87 in Calm     88 % 0.00 in
09:31 59.7 °F 56.5 °F 29.87 in WNW 1.2 mph 1.2 mph 89 % 0.00 in
09:36 59.7 °F 55.8 °F 29.87 in Calm     87 % 0.00 in
09:41 59.7 °F 56.1 °F 29.87 in Calm     88 % 0.00 in
09:46 59.8 °F 56.6 °F 29.88 in Calm     89 % 0.00 in
09:51 60.0 °F 56.1 °F 29.88 in WNW 1.2 mph   87 % 0.00 in
09:56 60.1 °F 55.9 °F 29.88 in NNW 1.2 mph 1.2 mph 86 % 0.00 in
10:01 60.3 °F 55.8 °F 29.87 in Calm     85 % 0.00 in
10:06 60.4 °F 55.5 °F 29.88 in NNW 1.2 mph 1.2 mph 84 % 0.00 in
10:11 60.5 °F 55.6 °F 29.88 in Calm     84 % 0.00 in
10:16 61.1 °F 56.2 °F 29.88 in WNW 1.2 mph 1.2 mph 84 % 0.00 in
10:21 61.6 °F 55.7 °F 29.88 in WNW 1.2 mph 1.2 mph 81 % 0.00 in
10:26 62.3 °F 55.7 °F 29.88 in WNW 3.5 mph 3.5 mph 79 % 0.00 in
10:31 63.1 °F 55.8 °F 29.88 in NNW 1.2 mph 1.2 mph 77 % 0.00 in
10:36 63.6 °F 55.2 °F 29.88 in WNW 1.2 mph 1.2 mph 74 % 0.00 in
10:41 64.1 °F 56.7 °F 29.88 in Calm     77 % 0.00 in
10:46 64.3 °F 55.8 °F 29.88 in WSW 1.2 mph 1.2 mph 74 % 0.00 in
10:51 64.1 °F 54.1 °F 29.88 in NW 1.2 mph   70 % 0.00 in
10:56 64.3 °F 55.8 °F 29.88 in Calm     74 % 0.00 in
11:01 65.0 °F 55.4 °F 29.88 in WNW 1.2 mph 1.2 mph 71 % 0.00 in
11:06 65.7 °F 55.2 °F 29.88 in ESE 1.2 mph   69 % 0.00 in
11:11 65.7 °F 55.6 °F 29.88 in West 1.2 mph   70 % 0.00 in
11:17 65.2 °F 53.6 °F 29.88 in Calm     66 % 0.00 in
11:22 65.2 °F 53.6 °F 29.88 in Calm     66 % 0.00 in
11:26 65.5 °F 54.7 °F 29.88 in NW 1.2 mph 1.2 mph 68 % 0.00 in
11:32 65.3 °F 53.2 °F 29.87 in WNW 2.3 mph 2.3 mph 65 % 0.00 in
11:37 65.2 °F 53.1 °F 29.87 in NNE 1.2 mph 1.2 mph 65 % 0.00 in
11:42 65.9 °F 54.2 °F 29.87 in Calm     66 % 0.00 in
11:47 66.8 °F 53.4 °F 29.87 in WNW 2.3 mph 2.3 mph 62 % 0.00 in
11:52 67.7 °F 53.3 °F 29.87 in North 1.2 mph 1.2 mph 60 % 0.00 in
11:57 68.6 °F 53.7 °F 29.87 in Calm     59 % 0.00 in
12:02 69.6 °F 53.2 °F 29.87 in SE 1.2 mph 1.2 mph 56 % 0.00 in
12:07 68.9 °F 53.5 °F 29.86 in WNW 3.5 mph 3.5 mph 58 % 0.00 in
12:12 67.1 °F 53.2 °F 29.86 in NW 3.5 mph 3.5 mph 61 % 0.00 in
12:17 66.3 °F 53.3 °F 29.86 in WNW 2.0 mph 2.0 mph 63 % 0.00 in
12:22 65.8 °F 54.1 °F 29.87 in NW 1.2 mph 1.2 mph 66 % 0.00 in
12:27 66.7 °F 53.3 °F 29.86 in NE 1.2 mph 1.2 mph 62 % 0.00 in
12:32 68.0 °F 55.4 °F 29.86 in WNW 1.0 mph 1.0 mph 64 % 0.00 in
12:37 69.0 °F 55.9 °F 29.86 in SSE 1.2 mph 1.2 mph 63 % 0.00 in
12:42 70.1 °F 54.6 °F 29.86 in WNW 3.5 mph 3.5 mph 58 % 0.00 in
12:47 70.2 °F 53.8 °F 29.86 in NW 3.5 mph 3.5 mph 56 % 0.00 in
12:52 69.1 °F 52.7 °F 29.86 in NW 3.5 mph 3.5 mph 56 % 0.00 in
12:57 68.2 °F 52.9 °F 29.86 in Calm     58 % 0.00 in
13:02 68.5 °F 51.7 °F 29.85 in North 1.2 mph 1.2 mph 55 % 0.00 in
13:07 68.8 °F 52.5 °F 29.85 in WNW 1.2 mph 1.2 mph 56 % 0.00 in
13:12 68.5 °F 53.1 °F 29.85 in West 2.3 mph 2.3 mph 58 % 0.00 in
13:17 68.4 °F 53.0 °F 29.85 in NW 2.3 mph 2.3 mph 58 % 0.00 in
13:22 68.8 °F 52.5 °F 29.85 in NNW 1.2 mph 1.2 mph 56 % 0.00 in
13:27 69.6 °F 53.2 °F 29.85 in NNW 1.2 mph 1.2 mph 56 % 0.00 in
13:32 70.6 °F 53.1 °F 29.85 in NW 3.5 mph 3.5 mph 54 % 0.00 in
13:37 70.7 °F 52.7 °F 29.84 in NNW 2.0 mph 2.0 mph 53 % 0.00 in
13:42 70.7 °F 51.1 °F 29.84 in WNW 2.3 mph 2.3 mph 50 % 0.00 in
13:47 69.5 °F 51.1 °F 29.84 in NW 1.2 mph 1.2 mph 52 % 0.00 in
13:52 69.8 °F 52.4 °F 29.84 in SSE 1.2 mph 1.2 mph 54 % 0.00 in
13:57 70.5 °F 52.5 °F 29.84 in SW 2.3 mph 2.3 mph 53 % 0.00 in
14:02 71.2 °F 49.9 °F 29.84 in NW 3.5 mph 3.5 mph 47 % 0.00 in
14:07 71.4 °F 48.9 °F 29.84 in WSW 3.5 mph 3.5 mph 45 % 0.00 in
14:12 71.6 °F 48.5 °F 29.84 in North 1.2 mph 1.2 mph 44 % 0.00 in
14:17 71.8 °F 50.5 °F 29.84 in NNW 1.2 mph 1.2 mph 47 % 0.00 in
14:22 71.6 °F 48.5 °F 29.83 in WNW 3.5 mph 3.5 mph 44 % 0.00 in
14:27 71.4 °F 45.8 °F 29.83 in NW 2.3 mph 2.3 mph 40 % 0.00 in
14:32 71.6 °F 46.6 °F 29.83 in NW 2.3 mph 2.3 mph 41 % 0.00 in
14:37 71.6 °F 49.1 °F 29.83 in NNE 1.2 mph   45 % 0.00 in
14:42 72.3 °F 49.8 °F 29.83 in WNW 3.5 mph 3.5 mph 45 % 0.00 in
14:47 72.7 °F 48.9 °F 29.83 in ESE 1.2 mph 1.2 mph 43 % 0.00 in
14:52 72.7 °F 48.3 °F 29.83 in Calm     42 % 0.00 in
14:57 72.2 °F 47.8 °F 29.82 in NW 3.5 mph 3.5 mph 42 % 0.00 in
15:02 71.5 °F 48.4 °F 29.82 in ENE 1.2 mph 1.2 mph 44 % 0.00 in
15:07 71.5 °F 49.6 °F 29.82 in NNW 1.0 mph 1.0 mph 46 % 0.00 in
15:12 71.9 °F 48.2 °F 29.82 in NNW 2.3 mph 2.3 mph 43 % 0.00 in
15:17 72.0 °F 48.3 °F 29.81 in NW 3.5 mph 3.5 mph 43 % 0.00 in
15:22 71.4 °F 46.5 °F 29.82 in WNW 2.3 mph 2.3 mph 41 % 0.00 in
15:27 71.6 °F 47.9 °F 29.81 in NNW 3.5 mph 3.5 mph 43 % 0.00 in
15:32 71.7 °F 46.7 °F 29.81 in North 1.0 mph   41 % 0.00 in
15:37 72.3 °F 47.3 °F 29.81 in South 2.3 mph 2.3 mph 41 % 0.00 in
15:42 72.8 °F 45.7 °F 29.81 in ESE 1.2 mph 1.2 mph 38 % 0.00 in
15:47 72.6 °F 45.5 °F 29.80 in NW 3.5 mph 3.5 mph 38 % 0.00 in
15:52 72.4 °F 47.4 °F 29.80 in WNW 2.3 mph 2.3 mph 41 % 0.00 in
15:57 72.2 °F 46.5 °F 29.80 in West 3.5 mph 3.5 mph 40 % 0.00 in
16:02 72.3 °F 45.9 °F 29.80 in North 2.3 mph   39 % 0.00 in
16:07 72.0 °F 47.6 °F 29.80 in WNW 3.5 mph 3.5 mph 42 % 0.00 in
16:12 71.6 °F 47.3 °F 29.80 in NW 3.0 mph 3.0 mph 42 % 0.00 in
16:17 71.4 °F 45.8 °F 29.80 in NW 2.3 mph 2.3 mph 40 % 0.00 in
16:22 71.4 °F 47.1 °F 29.80 in Calm     42 % 0.00 in
16:27 71.5 °F 46.6 °F 29.80 in WNW 1.2 mph 1.2 mph 41 % 0.00 in
16:32 71.4 °F 47.7 °F 29.81 in Calm     43 % 0.00 in
16:37 71.3 °F 45.7 °F 29.81 in NNE 2.3 mph 2.3 mph 40 % 0.00 in
16:42 71.4 °F 45.8 °F 29.81 in NW 2.3 mph 2.3 mph 40 % 0.00 in
16:47 71.7 °F 46.7 °F 29.81 in NW 2.3 mph 2.3 mph 41 % 0.00 in
16:52 71.9 °F 45.6 °F 29.81 in WNW 1.2 mph 1.2 mph 39 % 0.00 in
16:57 71.9 °F 44.9 °F 29.81 in West 1.2 mph 1.2 mph 38 % 0.00 in
17:02 71.9 °F 44.2 °F 29.81 in NE 2.3 mph 2.3 mph 37 % 0.00 in
17:07 72.0 °F 45.0 °F 29.82 in East 1.2 mph 1.2 mph 38 % 0.00 in
17:12 71.6 °F 46.0 °F 29.82 in NW 2.3 mph 2.3 mph 40 % 0.00 in
17:17 70.8 °F 45.3 °F 29.82 in WNW 1.0 mph 1.0 mph 40 % 0.00 in
17:22 70.5 °F 46.9 °F 29.82 in SW 1.2 mph   43 % 0.00 in
17:27 70.3 °F 46.7 °F 29.82 in NW 1.2 mph   43 % 0.00 in
17:32 70.2 °F 46.6 °F 29.82 in NNW 3.5 mph 3.5 mph 43 % 0.00 in
17:37 70.0 °F 46.5 °F 29.82 in WNW 2.3 mph 2.3 mph 43 % 0.00 in
17:42 69.8 °F 45.0 °F 29.82 in NNW 3.5 mph 3.5 mph 41 % 0.00 in
17:47 69.6 °F 44.2 °F 29.81 in WNW 3.5 mph 3.5 mph 40 % 0.00 in
17:53 69.3 °F 44.6 °F 29.81 in NW 3.5 mph 3.5 mph 41 % 0.00 in
17:58 69.2 °F 45.7 °F 29.82 in NNW 2.0 mph 2.0 mph 43 % 0.00 in
18:03 69.0 °F 44.9 °F 29.82 in NNW 3.5 mph 3.5 mph 42 % 0.00 in
18:08 68.8 °F 45.4 °F 29.82 in NW 3.5 mph 3.5 mph 43 % 0.00 in
18:13 68.6 °F 45.8 °F 29.82 in NNW 2.3 mph 2.3 mph 44 % 0.00 in
18:18 68.3 °F 46.7 °F 29.82 in NW 2.3 mph 2.3 mph 46 % 0.00 in
18:23 67.9 °F 46.3 °F 29.82 in WNW 1.2 mph 1.2 mph 46 % 0.00 in
18:28 67.6 °F 47.2 °F 29.82 in NW 1.2 mph 1.2 mph 48 % 0.00 in
18:33 67.2 °F 47.4 °F 29.82 in NW 1.2 mph 1.2 mph 49 % 0.00 in
18:38 66.8 °F 47.0 °F 29.82 in WNW 1.2 mph 1.2 mph 49 % 0.00 in
18:43 66.5 °F 47.8 °F 29.82 in Calm     51 % 0.00 in
18:48 66.2 °F 47.5 °F 29.82 in Calm     51 % 0.00 in
18:53 65.8 °F 47.7 °F 29.82 in Calm     52 % 0.00 in
18:58 65.4 °F 47.3 °F 29.82 in WNW 1.2 mph 1.2 mph 52 % 0.00 in
19:03 65.0 °F 47.4 °F 29.82 in Calm     53 % 0.00 in
19:08 64.7 °F 47.7 °F 29.82 in Calm     54 % 0.00 in
19:13 64.4 °F 47.9 °F 29.82 in Calm     55 % 0.00 in
19:18 64.1 °F 47.6 °F 29.82 in Calm     55 % 0.00 in
19:23 64.1 °F 47.1 °F 29.82 in Calm     54 % 0.00 in
19:28 64.0 °F 48.0 °F 29.82 in Calm     56 % 0.00 in
19:33 63.6 °F 48.5 °F 29.83 in Calm     58 % 0.00 in
19:38 63.2 °F 47.7 °F 29.83 in Calm     57 % 0.00 in
19:43 62.9 °F 49.2 °F 29.83 in Calm     61 % 0.00 in
19:48 62.5 °F 49.3 °F 29.83 in Calm     62 % 0.00 in
19:53 62.0 °F 50.1 °F 29.83 in Calm     65 % 0.00 in
19:58 61.5 °F 50.4 °F 29.83 in Calm     67 % 0.00 in
20:03 60.9 °F 50.7 °F 29.83 in Calm     69 % 0.00 in
20:08 60.4 °F 51.0 °F 29.83 in Calm     71 % 0.00 in
20:13 60.0 °F 50.9 °F 29.83 in Calm     72 % 0.00 in
20:18 59.7 °F 50.7 °F 29.83 in Calm     72 % 0.00 in
20:23 59.5 °F 50.8 °F 29.83 in Calm     73 % 0.00 in
20:28 59.3 °F 50.6 °F 29.83 in Calm     73 % 0.00 in
20:33 59.1 °F 51.5 °F 29.83 in Calm     76 % 0.00 in
20:38 58.9 °F 51.0 °F 29.83 in Calm     75 % 0.00 in
20:43 59.0 °F 50.7 °F 29.83 in Calm     74 % 0.00 in
20:48 59.1 °F 50.8 °F 29.83 in Calm     74 % 0.00 in
20:53 59.1 °F 50.5 °F 29.83 in Calm     73 % 0.00 in
20:58 59.0 °F 51.1 °F 29.83 in Calm     75 % 0.00 in
21:03 58.8 °F 50.5 °F 29.84 in Calm     74 % 0.00 in
21:08 58.7 °F 50.4 °F 29.83 in Calm     74 % 0.00 in
21:13 59.0 °F 50.0 °F 29.83 in Calm     72 % 0.00 in
21:15 59.0 °F 49.6 °F 29.83 in Calm     71 % 0.00 in
21:20 59.0 °F 49.6 °F 29.83 in Calm     71 % 0.00 in
21:25 59.0 °F 48.8 °F 29.83 in Calm     69 % 0.00 in
21:30 59.4 °F 49.2 °F 29.83 in Calm     69 % 0.00 in
21:35 59.4 °F 49.2 °F 29.83 in Calm     69 % 0.00 in
21:40 59.1 °F 50.1 °F 29.83 in Calm     72 % 0.00 in
21:45 58.6 °F 50.7 °F 29.83 in Calm     75 % 0.00 in
21:50 58.3 °F 50.8 °F 29.84 in Calm     76 % 0.00 in
21:51 58.2 °F 50.7 °F 29.84 in Calm     76 % 0.00 in
21:56 57.9 °F 50.4 °F 29.84 in Calm     76 % 0.00 in
22:01 57.2 °F 50.7 °F 29.84 in Calm     79 % 0.00 in
22:06 56.5 °F 50.1 °F 29.84 in Calm     79 % 0.00 in
22:11 56.2 °F 49.8 °F 29.84 in Calm     79 % 0.00 in
22:16 56.0 °F 49.9 °F 29.84 in Calm     80 % 0.00 in
22:21 56.0 °F 49.9 °F 29.84 in Calm     80 % 0.00 in
22:26 56.3 °F 50.2 °F 29.84 in Calm     80 % 0.00 in
22:31 56.4 °F 50.0 °F 29.84 in Calm     79 % 0.00 in
22:36 56.1 °F 50.0 °F 29.84 in Calm     80 % 0.00 in
22:41 55.9 °F 50.2 °F 29.84 in Calm     81 % 0.00 in
22:46 56.1 °F 50.0 °F 29.84 in WNW 1.0 mph   80 % 0.00 in
22:51 55.8 °F 49.7 °F 29.85 in NW 3.5 mph 3.5 mph 80 % 0.00 in
22:56 55.6 °F 49.2 °F 29.85 in NW 2.3 mph 2.3 mph 79 % 0.00 in
23:01 56.1 °F 49.3 °F 29.85 in Calm     78 % 0.00 in
23:06 56.2 °F 49.4 °F 29.85 in WNW 1.2 mph   78 % 0.00 in
23:11 56.1 °F 49.3 °F 29.85 in Calm     78 % 0.00 in
23:16 56.0 °F 49.2 °F 29.85 in WNW 1.2 mph 1.2 mph 78 % 0.00 in
23:21 56.1 °F 49.0 °F 29.85 in NW 1.2 mph 1.2 mph 77 % 0.00 in
23:26 56.2 °F 49.1 °F 29.85 in NW 1.2 mph 1.2 mph 77 % 0.00 in
23:31 56.5 °F 49.0 °F 29.85 in Calm     76 % 0.00 in
23:36 56.5 °F 49.0 °F 29.85 in Calm     76 % 0.00 in
23:41 56.6 °F 48.8 °F 29.85 in Calm     75 % 0.00 in
23:46 56.7 °F 48.5 °F 29.85 in Calm     74 % 0.00 in
23:51 56.6 °F 48.4 °F 29.85 in Calm     74 % 0.00 in
23:56 56.5 °F 48.7 °F 29.85 in Calm     75 % 0.00 in
Park Place, Exeter, Tulare County, California, USA
Compliments of Weather Underground - 2.75 mb